Rexmere, Louisiana
Current Conditions -  °F | °C
As of 2:53 PM on Saturday 20 Dec 2014 (Local Time) from KESF Reporting Station
Few Clouds Few Clouds  
Wind Chill: 57°   Ceiling: Unl
Heat Index: 57°   Visibility: 10mi
Dew Point: 43°   Wind: 6mph
Humidity: 59%   Direction: NA
Pressure: 30.15"   Gusts: NA
Location:  31.0386°N, 91.9871°W
Report Text: KESF 202053Z AUTO VRB05KT 10SM FEW029 14/06 A3015 RMK AO2 SLP208 T01390061 56019
Loading
Personal Weather Stations






























Interactive Weather Map New forecast layout! Learn more

10-Day Weather Forecast

Advertisements
Track Severe Weather on mobile